Time;durP1;ratioP1;P1;durP2;ratioP2;P2;SDS_P1;SDS_P2;PMS_P1;PMS_P2;Temp;Humidity;BMP_temperature;BMP_pressure;BME280_temperature;BME280_humidity;BME280_pressure;Samples;Min_cycle;Max_cycle;Signal;HPM_P1;HPM_P2
2021/12/17 00:00:58;;;;;;;15.90;13.50;;;;;;;5.83;82.69;97556.41;4954693;28;20262;-83
2021/12/17 00:03:37;;;;;;;18.77;14.80;;;;;;;5.84;82.56;97546.09;4953886;28;20201;-83
2021/12/17 00:06:18;;;;;;;17.93;14.00;;;;;;;5.81;82.54;97553.13;4947205;29;20291;-83
2021/12/17 00:08:49;;;;;;;18.07;14.43;;;;;;;5.79;82.59;97553.22;4954962;28;20256;-83
2021/12/17 00:11:16;;;;;;;16.77;14.13;;;;;;;5.79;82.70;97548.09;4953976;28;20235;-83
2021/12/17 00:13:44;;;;;;;20.33;15.23;;;;;;;5.82;82.86;97554.75;4954991;28;20220;-83
2021/12/17 00:16:18;;;;;;;19.50;15.53;;;;;;;5.77;83.46;97544.84;4954595;28;20587;-83
2021/12/17 00:19:15;;;;;;;17.43;14.40;;;;;;;5.83;82.67;97541.06;4954116;28;20200;-83
2021/12/17 00:44:11;;;;;;;14.90;11.77;;;;;;;5.63;84.05;97538.97;4957261;28;20255;-83
2021/12/17 00:49:20;;;;;;;12.00;10.47;;;;;;;5.69;83.64;97552.19;4941598;29;20238;-83
2021/12/17 00:51:58;;;;;;;14.67;12.07;;;;;;;5.66;84.06;97556.66;4958547;28;20237;-83
2021/12/17 00:54:34;;;;;;;15.17;11.47;;;;;;;5.73;83.83;97551.09;4958421;29;20200;-84
2021/12/17 00:57:04;;;;;;;14.43;11.57;;;;;;;5.70;83.78;97556.38;4958155;28;20813;-83
2021/12/17 00:59:31;;;;;;;15.40;11.80;;;;;;;5.77;84.15;97559.38;4957824;28;20223;-83
2021/12/17 01:02:00;;;;;;;14.07;11.00;;;;;;;5.83;83.61;97557.22;4958460;28;20236;-84
2021/12/17 01:04:28;;;;;;;13.03;10.90;;;;;;;5.88;83.23;97556.94;4961150;28;20204;-84
2021/12/17 01:06:55;;;;;;;12.73;10.83;;;;;;;5.87;83.40;97563.78;4959671;28;20211;-83
2021/12/17 01:09:25;;;;;;;13.33;10.90;;;;;;;5.92;83.28;97567.81;4959116;29;20231;-84
2021/12/17 01:11:52;;;;;;;13.80;11.20;;;;;;;5.93;82.78;97566.91;4959154;28;20315;-84
2021/12/17 01:14:19;;;;;;;14.53;10.90;;;;;;;5.93;82.48;97559.22;4958618;29;20231;-84
2021/12/17 01:16:47;;;;;;;13.63;11.53;;;;;;;5.95;83.04;97548.00;4959515;28;20256;-84
2021/12/17 01:19:22;;;;;;;14.47;11.47;;;;;;;5.96;82.51;97539.41;4958335;28;20332;-83
2021/12/17 01:22:02;;;;;;;13.57;10.93;;;;;;;5.98;82.61;97546.94;4957679;28;20236;-83
2021/12/17 01:24:37;;;;;;;12.37;10.27;;;;;;;5.96;82.62;97544.53;4957676;28;20612;-83
2021/12/17 01:35:24;;;;;;;11.07;9.50;;;;;;;5.91;82.67;97530.38;4956944;28;20255;-83
2021/12/17 01:41:13;;;;;;;13.93;10.10;;;;;;;5.93;82.90;97516.59;4935068;28;20281;-83
2021/12/17 01:43:44;;;;;;;11.83;9.93;;;;;;;5.84;83.55;97523.06;4941914;29;20744;-83
2021/12/17 01:46:12;;;;;;;12.03;9.33;;;;;;;5.79;84.13;97512.31;4957284;28;20209;-83
2021/12/17 01:48:56;;;;;;;12.30;10.37;;;;;;;5.78;84.18;97508.13;4967401;28;20193;-83
2021/12/17 01:56:59;;;;;;;11.00;9.80;;;;;;;5.91;83.66;97504.81;4956474;29;20590;-83
2021/12/17 01:59:32;;;;;;;13.77;9.67;;;;;;;5.91;83.49;97520.16;4956023;28;20213;-84
2021/12/17 02:02:04;;;;;;;10.27;9.00;;;;;;;5.91;83.50;97515.06;4955802;28;20239;-83
2021/12/17 02:04:31;;;;;;;12.43;8.80;;;;;;;5.91;83.70;97510.75;4955639;28;20244;-83
2021/12/17 02:06:58;;;;;;;11.07;9.07;;;;;;;5.92;83.83;97514.13;4955338;28;20209;-83
2021/12/17 02:12:31;;;;;;;10.10;9.00;;;;;;;5.99;82.92;97510.25;4915632;29;20244;-83
2021/12/17 02:20:47;;;;;;;11.17;9.23;;;;;;;5.97;83.32;97501.84;4954152;28;20758;-83
2021/12/17 02:28:43;;;;;;;11.07;9.43;;;;;;;5.89;83.79;97503.19;4955371;28;20821;-83
2021/12/17 02:29:19;;;;;;;10.37;8.57;;;;;;;5.87;84.44;97494.75;4944128;29;20307;-83
2021/12/17 02:31:47;;;;;;;12.27;9.70;;;;;;;5.92;84.49;97491.13;4955285;28;20228;-83
2021/12/17 02:34:30;;;;;;;10.77;9.57;;;;;;;5.81;85.09;97490.03;4955314;28;20204;-83
2021/12/17 02:37:00;;;;;;;11.77;9.97;;;;;;;5.85;85.58;97483.00;4955389;28;20241;-83
2021/12/17 02:39:52;;;;;;;11.23;9.83;;;;;;;5.93;85.22;97475.69;4955706;28;20217;-83
2021/12/17 02:42:34;;;;;;;10.20;8.90;;;;;;;5.99;84.87;97482.13;4954777;28;20233;-83
2021/12/17 02:47:44;;;;;;;10.67;9.27;;;;;;;5.98;84.63;97473.63;4962487;28;20276;-82
2021/12/17 02:50:12;;;;;;;11.77;10.10;;;;;;;5.99;84.90;97470.16;4957174;28;20248;-83
2021/12/17 02:52:41;;;;;;;11.70;8.87;;;;;;;6.07;84.46;97461.97;4954183;28;20247;-83
2021/12/17 02:55:09;;;;;;;10.93;9.70;;;;;;;6.12;84.09;97460.75;4954618;28;20205;-83
2021/12/17 02:57:36;;;;;;;10.17;9.07;;;;;;;6.11;83.77;97465.97;4954533;28;20201;-83
2021/12/17 03:00:06;;;;;;;9.57;8.20;;;;;;;6.13;84.11;97456.47;4954355;28;20243;-83
2021/12/17 03:02:37;;;;;;;9.37;8.37;;;;;;;6.13;84.04;97471.81;4954733;28;20245;-83
2021/12/17 03:05:04;;;;;;;11.10;9.20;;;;;;;6.15;84.13;97472.53;4954425;29;20306;-83
2021/12/17 03:07:30;;;;;;;11.17;9.67;;;;;;;6.18;84.07;97477.41;4954069;28;20212;-83
2021/12/17 03:10:03;;;;;;;9.93;8.77;;;;;;;6.18;83.93;97472.28;4955032;28;20224;-83
2021/12/17 03:12:35;;;;;;;10.67;8.67;;;;;;;6.19;84.26;97467.09;4953959;28;20296;-83
2021/12/17 03:15:09;;;;;;;9.83;8.83;;;;;;;6.23;84.08;97470.25;4955194;28;20232;-83
2021/12/17 03:18:00;;;;;;;12.37;9.93;;;;;;;6.14;84.70;97481.13;4957152;28;20295;-84
2021/12/17 03:25:56;;;;;;;11.00;8.97;;;;;;;6.22;84.31;97472.00;4955980;28;20208;-84
2021/12/17 03:28:23;;;;;;;10.07;8.90;;;;;;;6.21;85.09;97479.78;4964670;28;20205;-83
2021/12/17 03:30:49;;;;;;;9.57;8.57;;;;;;;6.27;85.01;97481.09;4956107;28;20891;-84
2021/12/17 03:33:16;;;;;;;9.50;8.50;;;;;;;6.30;84.70;97481.72;4956199;28;20197;-84
2021/12/17 03:35:43;;;;;;;10.60;8.50;;;;;;;6.29;84.44;97487.75;4956536;28;20208;-84
2021/12/17 03:38:09;;;;;;;10.37;8.87;;;;;;;6.30;84.66;97486.84;4955087;29;20204;-83
2021/12/17 03:40:36;;;;;;;10.80;8.50;;;;;;;6.30;84.85;97497.06;4954795;28;20221;-83
2021/12/17 03:43:11;;;;;;;10.73;8.67;;;;;;;6.34;84.82;97487.47;4955507;28;20204;-83
2021/12/17 03:45:38;;;;;;;9.97;8.43;;;;;;;6.32;84.80;97486.75;4955147;28;20235;-83
2021/12/17 03:48:05;;;;;;;11.87;9.17;;;;;;;6.33;84.68;97480.72;4962419;28;20256;-83
2021/12/17 03:50:33;;;;;;;11.53;8.97;;;;;;;6.32;84.37;97484.19;4954300;28;20228;-83
2021/12/17 03:53:00;;;;;;;10.53;9.10;;;;;;;6.33;84.58;97481.53;4955308;28;20212;-83
2021/12/17 03:55:27;;;;;;;10.27;8.70;;;;;;;6.31;84.41;97491.03;4954656;28;20728;-83
2021/12/17 03:57:54;;;;;;;11.17;9.53;;;;;;;6.31;84.45;97488.47;4954955;28;20201;-83
2021/12/17 04:00:22;;;;;;;12.20;9.63;;;;;;;6.29;85.10;97484.38;4954412;28;20336;-83
2021/12/17 04:02:48;;;;;;;12.33;9.73;;;;;;;6.30;85.10;97491.13;4955785;28;20201;-83
2021/12/17 04:05:15;;;;;;;11.60;9.80;;;;;;;6.30;84.87;97480.91;4958488;28;20200;-83
2021/12/17 04:07:41;;;;;;;12.10;9.73;;;;;;;6.28;85.63;97481.00;4958558;28;20213;-83
2021/12/17 04:10:08;;;;;;;10.20;9.17;;;;;;;6.31;85.39;97472.31;4959188;28;20365;-83
2021/12/17 04:12:45;;;;;;;11.83;9.67;;;;;;;6.33;85.23;97467.91;4958301;28;20232;-83
2021/12/17 04:15:13;;;;;;;11.77;9.63;;;;;;;6.37;85.41;97470.13;4958210;28;20216;-83
2021/12/17 04:17:44;;;;;;;13.63;10.20;;;;;;;6.41;85.14;97471.56;4957991;28;20238;-83
2021/12/17 04:20:12;;;;;;;13.63;9.70;;;;;;;6.41;85.28;97458.78;4957706;28;20236;-83
2021/12/17 04:22:38;;;;;;;11.07;9.33;;;;;;;6.38;85.54;97456.44;4957297;28;20224;-83
2021/12/17 04:25:05;;;;;;;13.40;10.73;;;;;;;6.34;85.59;97449.09;4958023;28;20212;-83
2021/12/17 04:27:32;;;;;;;13.43;10.80;;;;;;;6.38;85.21;97437.69;4965142;28;20201;-83
2021/12/17 04:29:59;;;;;;;11.93;10.27;;;;;;;6.42;85.31;97441.69;4957758;28;20225;-83
2021/12/17 04:32:25;;;;;;;12.37;9.97;;;;;;;6.44;85.16;97430.44;4956495;28;20228;-83
2021/12/17 04:34:53;;;;;;;11.50;9.97;;;;;;;6.46;84.85;97432.88;4957206;28;20209;-83
2021/12/17 04:37:20;;;;;;;11.83;9.93;;;;;;;6.47;84.93;97431.97;4957481;28;20205;-83
2021/12/17 04:39:46;;;;;;;13.40;9.90;;;;;;;6.47;84.96;97439.63;4957210;28;20217;-83
2021/12/17 04:42:18;;;;;;;13.33;10.50;;;;;;;6.47;85.09;97439.63;4955628;28;20235;-83
2021/12/17 04:44:51;;;;;;;12.80;10.10;;;;;;;6.46;85.13;97436.25;4955871;28;20192;-83
2021/12/17 04:58:16;;;;;;;13.23;11.03;;;;;;;6.38;85.88;97418.03;4956877;28;20212;-83
2021/12/17 05:00:42;;;;;;;14.27;10.90;;;;;;;6.36;86.15;97426.75;4957173;28;20581;-83
2021/12/17 05:03:08;;;;;;;12.47;10.57;;;;;;;6.39;85.87;97417.13;4946713;29;20682;-83
2021/12/17 05:05:36;;;;;;;13.17;11.30;;;;;;;6.41;85.71;97429.81;4956639;29;20208;-83
2021/12/17 05:08:08;;;;;;;13.87;10.00;;;;;;;6.38;85.83;97414.66;4956736;28;20209;-83
2021/12/17 05:10:53;;;;;;;13.13;10.70;;;;;;;6.41;86.20;97415.28;4956365;28;20228;-83
2021/12/17 05:18:55;;;;;;;12.27;10.80;;;;;;;6.47;85.56;97399.53;4956616;28;20211;-83
2021/12/17 05:21:24;;;;;;;12.37;10.17;;;;;;;6.48;85.03;97400.34;4956074;28;20248;-83
2021/12/17 05:23:51;;;;;;;10.40;9.30;;;;;;;6.40;84.69;97405.16;4956761;29;20197;-83
2021/12/17 05:26:20;;;;;;;10.07;8.80;;;;;;;6.27;84.06;97404.38;4956533;28;20271;-82
2021/12/17 05:28:48;;;;;;;9.30;8.40;;;;;;;6.16;85.12;97410.19;4956434;28;20201;-81
2021/12/17 05:31:16;;;;;;;10.03;9.00;;;;;;;6.16;85.17;97418.69;4955445;28;20235;-81
2021/12/17 05:33:43;;;;;;;9.50;8.50;;;;;;;6.16;84.84;97436.59;4958315;29;20209;-81
2021/12/17 05:36:09;;;;;;;7.97;7.17;;;;;;;6.01;84.60;97427.41;4958726;28;20205;-81
2021/12/17 05:38:37;;;;;;;7.47;6.77;;;;;;;6.01;84.12;97421.47;4958377;29;20206;-81
2021/12/17 05:41:03;;;;;;;7.33;6.63;;;;;;;6.00;84.74;97423.22;4957917;28;20360;-81
2021/12/17 05:43:35;;;;;;;7.00;6.30;;;;;;;5.97;85.62;97420.84;4954533;28;20212;-81
2021/12/17 05:46:09;;;;;;;7.53;6.73;;;;;;;6.00;85.88;97440.28;4962867;28;20212;-81
2021/12/17 05:48:36;;;;;;;7.60;6.83;;;;;;;6.03;95.35;97463.09;4956741;28;20213;-81
2021/12/17 05:51:06;;;;;;;7.70;6.73;;;;;;;6.14;95.68;97465.78;4958472;28;20232;-81
2021/12/17 05:53:33;;;;;;;6.97;6.27;;;;;;;6.14;87.83;97465.78;4954666;28;20572;-81
2021/12/17 05:56:01;;;;;;;7.57;6.60;;;;;;;6.05;87.73;97462.06;4957775;28;20200;-82
2021/12/17 05:58:29;;;;;;;5.90;5.30;;;;;;;5.99;87.15;97466.78;4954009;28;20205;-81
2021/12/17 06:00:57;;;;;;;6.33;5.73;;;;;;;5.95;87.13;97460.25;4956021;28;20296;-82
2021/12/17 06:03:24;;;;;;;4.43;4.03;;;;;;;5.93;86.89;97459.53;4957010;28;20196;-82
2021/12/17 06:05:50;;;;;;;4.57;4.17;;;;;;;5.87;87.86;97468.38;4957154;28;20366;-82
2021/12/17 06:08:17;;;;;;;3.20;3.00;;;;;;;5.81;87.90;97477.25;4956373;28;20216;-82
2021/12/17 06:10:44;;;;;;;2.70;2.50;;;;;;;5.61;88.33;97485.41;4956965;28;20229;-82
2021/12/17 06:13:12;;;;;;;3.17;2.87;;;;;;;5.63;89.58;97487.88;4957208;28;20208;-82
2021/12/17 06:15:38;;;;;;;3.90;3.50;;;;;;;5.69;88.57;97495.97;4957266;28;20802;-82
2021/12/17 06:18:05;;;;;;;3.90;3.60;;;;;;;5.87;87.87;97499.06;4955546;28;20215;-82
2021/12/17 06:20:31;;;;;;;4.00;3.60;;;;;;;5.91;87.44;97495.41;4952651;28;20225;-82
2021/12/17 06:22:58;;;;;;;3.50;3.20;;;;;;;5.91;86.76;97500.53;4954997;28;20212;-82
2021/12/17 06:25:24;;;;;;;3.40;3.10;;;;;;;5.89;86.31;97499.81;4966523;28;20204;-82
2021/12/17 06:27:51;;;;;;;3.67;3.37;;;;;;;5.86;87.01;97493.13;4956154;29;20696;-82
2021/12/17 06:30:20;;;;;;;2.80;2.60;;;;;;;5.87;86.43;97497.31;4956278;28;20217;-82
2021/12/17 06:32:47;;;;;;;3.00;2.80;;;;;;;5.98;85.87;97495.81;4936344;29;20261;-82
2021/12/17 06:35:14;;;;;;;2.80;2.60;;;;;;;6.10;85.19;97484.78;4935984;29;20209;-82
2021/12/17 06:37:41;;;;;;;3.40;3.10;;;;;;;6.21;84.51;97484.88;4936341;29;20240;-82
2021/12/17 06:40:09;;;;;;;3.13;2.83;;;;;;;6.27;83.98;97491.34;4936166;29;20229;-82
2021/12/17 06:42:36;;;;;;;3.33;3.03;;;;;;;6.31;83.43;97485.09;4958666;28;20730;-82
2021/12/17 06:45:06;;;;;;;2.90;2.70;;;;;;;6.33;82.94;97494.31;4957946;28;20671;-82
2021/12/17 06:47:36;;;;;;;2.80;2.60;;;;;;;6.42;82.62;97505.66;4955022;28;20209;-82
2021/12/17 06:55:51;;;;;;;4.07;3.10;;;;;;;6.46;82.22;97491.72;4954851;28;20216;-82
2021/12/17 06:58:43;;;;;;;3.67;3.13;;;;;;;6.34;81.21;97480.59;4955158;28;20209;-82
2021/12/17 07:01:18;;;;;;;3.30;3.00;;;;;;;6.15;81.50;97482.75;4951570;28;20233;-82
2021/12/17 07:06:57;;;;;;;3.90;3.50;;;;;;;6.13;81.76;97464.97;4955884;29;20311;-83
2021/12/17 07:17:36;;;;;;;7.80;5.63;;;;;;;5.80;82.06;97473.06;4955374;28;20686;-82
2021/12/17 07:23:07;;;;;;;6.10;5.50;;;;;;;5.62;81.25;97478.56;4955344;28;20351;-82
2021/12/17 07:28:51;;;;;;;7.53;5.70;;;;;;;5.64;80.97;97469.06;4958768;29;20204;-82
2021/12/17 07:34:03;;;;;;;6.50;5.90;;;;;;;5.58;80.63;97472.81;4956941;28;20372;-83
2021/12/17 07:36:39;;;;;;;6.40;5.80;;;;;;;5.60;81.00;97480.38;4956226;28;20648;-82
2021/12/17 07:39:05;;;;;;;6.63;5.90;;;;;;;5.52;80.57;97474.06;4949522;28;20291;-83
2021/12/17 07:41:31;;;;;;;7.03;6.33;;;;;;;5.56;80.11;97479.78;4956297;28;20252;-82
2021/12/17 07:44:00;;;;;;;6.87;6.17;;;;;;;5.62;79.93;97484.50;4956649;28;20205;-83
2021/12/17 07:46:27;;;;;;;6.50;5.90;;;;;;;5.65;79.65;97498.81;4956100;29;20214;-83
2021/12/17 07:48:53;;;;;;;7.00;6.30;;;;;;;5.60;79.67;97505.94;4955967;28;20205;-82
2021/12/17 07:51:22;;;;;;;6.87;6.10;;;;;;;5.57;79.65;97506.16;4956044;28;20236;-82
2021/12/17 07:53:50;;;;;;;7.53;6.67;;;;;;;5.56;79.63;97497.69;4956950;28;20197;-82
2021/12/17 07:56:19;;;;;;;7.40;6.70;;;;;;;5.56;79.47;97505.34;4964473;28;20200;-82
2021/12/17 07:58:46;;;;;;;7.27;6.40;;;;;;;5.67;79.76;97508.00;4958207;28;22298;-82
2021/12/17 08:01:13;;;;;;;7.33;6.63;;;;;;;5.77;79.35;97508.25;4956655;28;20299;-82
2021/12/17 08:03:42;;;;;;;6.77;6.13;;;;;;;5.85;78.75;97511.13;4955951;28;20204;-81
2021/12/17 08:06:08;;;;;;;8.87;6.90;;;;;;;5.84;78.54;97505.19;4955107;28;20197;-82
2021/12/17 08:08:35;;;;;;;8.87;6.70;;;;;;;5.89;78.30;97500.63;4954909;28;20215;-82
2021/12/17 08:11:04;;;;;;;7.63;6.73;;;;;;;6.04;78.30;97513.31;4954054;28;20656;-82
2021/12/17 08:13:33;;;;;;;7.27;6.53;;;;;;;6.11;78.06;97502.59;4955461;28;20236;-82
2021/12/17 08:18:52;;;;;;;7.30;6.60;;;;;;;6.68;76.93;97496.22;4952729;28;20289;-82
2021/12/17 08:24:45;;;;;;;7.17;6.43;;;;;;;7.05;75.68;97497.03;4968396;28;20207;-83
2021/12/17 08:30:23;;;;;;;11.30;7.10;;;;;;;7.04;74.24;97492.84;4930761;28;20260;-82
2021/12/17 08:32:50;;;;;;;7.63;6.83;;;;;;;7.11;75.09;97486.38;4955636;29;20271;-82
2021/12/17 08:35:16;;;;;;;6.87;6.17;;;;;;;7.21;74.67;97482.22;4955813;28;20364;-82
2021/12/17 08:37:43;;;;;;;9.60;6.47;;;;;;;7.27;74.61;97477.50;4955946;28;20201;-82
2021/12/17 08:40:10;;;;;;;6.67;6.07;;;;;;;7.64;73.67;97477.41;4955515;28;20221;-82
2021/12/17 08:42:38;;;;;;;5.93;5.43;;;;;;;7.77;71.93;97480.69;4955882;28;20715;-82
2021/12/17 08:45:06;;;;;;;5.73;5.23;;;;;;;8.08;72.04;97488.72;4959351;28;20211;-82
2021/12/17 08:47:33;;;;;;;5.63;4.90;;;;;;;8.15;69.51;97485.56;4960554;28;20207;-82
2021/12/17 08:50:06;;;;;;;5.50;5.00;;;;;;;7.65;71.24;97484.16;4956977;28;20224;-82
2021/12/17 08:52:33;;;;;;;5.60;4.97;;;;;;;7.89;72.21;97486.66;4956885;28;20237;-82
2021/12/17 08:55:00;;;;;;;4.77;4.37;;;;;;;8.06;71.48;97488.00;4954550;28;20267;-82
2021/12/17 08:57:26;;;;;;;5.97;4.77;;;;;;;7.83;70.49;97482.81;4958131;29;20218;-83
2021/12/17 08:59:56;;;;;;;4.93;4.50;;;;;;;7.59;71.17;97480.28;4939523;29;20287;-82
2021/12/17 09:02:22;;;;;;;5.13;4.73;;;;;;;7.82;71.80;97482.94;4959168;28;20228;-83
2021/12/17 09:04:49;;;;;;;5.27;4.77;;;;;;;8.20;71.33;97486.03;4958272;28;20236;-82
2021/12/17 09:07:15;;;;;;;5.07;4.67;;;;;;;8.44;69.43;97482.59;4958476;28;20220;-82
2021/12/17 09:09:44;;;;;;;5.40;4.90;;;;;;;8.46;69.73;97485.88;4957475;28;20342;-82
2021/12/17 09:12:11;;;;;;;5.47;4.97;;;;;;;8.76;68.87;97480.94;4957673;28;20323;-81
2021/12/17 09:14:38;;;;;;;5.43;4.80;;;;;;;8.76;66.71;97485.25;4958061;28;20196;-82
2021/12/17 09:17:05;;;;;;;5.77;4.87;;;;;;;9.07;68.27;97476.78;4958212;28;20205;-82
2021/12/17 09:19:32;;;;;;;5.17;4.67;;;;;;;9.40;67.00;97480.22;4957171;28;20225;-83
2021/12/17 09:21:59;;;;;;;6.63;4.90;;;;;;;9.09;65.75;97471.53;4961147;28;20651;-83
2021/12/17 09:24:25;;;;;;;5.13;4.73;;;;;;;9.22;65.83;97469.66;4958085;28;20209;-82
2021/12/17 09:26:52;;;;;;;4.87;4.47;;;;;;;9.51;65.74;97477.59;4958285;28;20298;-82
2021/12/17 09:29:18;;;;;;;5.23;4.73;;;;;;;9.58;64.83;97471.84;4956799;28;20643;-83
2021/12/17 09:31:45;;;;;;;5.30;4.80;;;;;;;9.70;64.29;97477.75;4956704;28;20220;-82
2021/12/17 09:34:15;;;;;;;5.13;4.70;;;;;;;9.84;63.85;97469.72;4957894;28;20215;-82
2021/12/17 09:36:42;;;;;;;4.80;4.40;;;;;;;10.07;63.64;97474.72;4957646;28;20205;-82
2021/12/17 09:39:08;;;;;;;6.77;4.63;;;;;;;9.81;62.39;97471.75;4956798;28;20204;-82
2021/12/17 09:41:35;;;;;;;6.53;4.80;;;;;;;9.85;63.35;97479.06;4957206;28;20236;-82
2021/12/17 09:44:01;;;;;;;5.50;5.00;;;;;;;10.07;63.06;97470.41;4957540;28;20213;-82
2021/12/17 09:46:28;;;;;;;6.07;5.47;;;;;;;9.78;61.57;97470.22;4957524;28;20224;-83
2021/12/17 09:48:55;;;;;;;5.77;5.13;;;;;;;9.75;62.42;97472.22;4956542;28;20213;-82
2021/12/17 09:51:22;;;;;;;5.33;4.83;;;;;;;9.79;62.43;97468.47;4955928;28;20283;-82
2021/12/17 09:53:52;;;;;;;5.80;5.30;;;;;;;9.73;61.45;97456.91;4954982;28;20814;-82
2021/12/17 09:56:18;;;;;;;5.77;5.17;;;;;;;9.85;62.58;97462.81;4956669;28;20220;-82
2021/12/17 09:58:45;;;;;;;5.90;5.23;;;;;;;9.91;62.33;97455.41;4956431;28;20208;-83
2021/12/17 10:01:11;;;;;;;5.57;5.07;;;;;;;10.15;62.40;97462.06;4954764;28;20260;-82
2021/12/17 10:03:38;;;;;;;6.13;5.50;;;;;;;10.21;61.57;97462.38;4955225;28;20245;-82
2021/12/17 10:06:04;;;;;;;6.00;5.40;;;;;;;10.25;60.87;97465.50;4960687;28;20263;-82
2021/12/17 10:08:32;;;;;;;5.73;5.20;;;;;;;10.48;60.19;97466.16;4956282;28;20212;-82
2021/12/17 10:11:00;;;;;;;6.70;5.27;;;;;;;10.70;60.68;97451.34;4955371;28;20578;-83
2021/12/17 10:13:30;;;;;;;6.20;5.70;;;;;;;10.64;58.92;97446.69;4955767;28;20644;-82
2021/12/17 10:16:00;;;;;;;6.30;5.70;;;;;;;10.32;59.26;97444.28;4955582;28;20228;-82
2021/12/17 10:18:35;;;;;;;6.57;5.97;;;;;;;10.17;59.16;97435.25;4955864;28;20209;-81
2021/12/17 10:21:05;;;;;;;5.67;5.13;;;;;;;10.22;59.95;97425.38;4954094;28;20244;-82
2021/12/17 10:23:33;;;;;;;6.10;5.50;;;;;;;10.42;59.86;97425.47;4968715;28;20204;-82
2021/12/17 10:26:00;;;;;;;5.83;5.23;;;;;;;10.53;58.96;97423.63;4963059;28;20212;-82
2021/12/17 10:28:28;;;;;;;5.80;5.30;;;;;;;10.26;59.29;97431.91;4955110;29;20201;-82
2021/12/17 10:30:55;;;;;;;5.97;5.23;;;;;;;10.17;59.39;97431.84;4955388;28;20232;-82
2021/12/17 10:33:27;;;;;;;6.40;5.80;;;;;;;10.11;60.58;97422.88;4954987;28;20211;-82
2021/12/17 10:35:56;;;;;;;6.17;5.67;;;;;;;10.17;60.29;97429.28;4958945;28;20205;-82
2021/12/17 10:38:26;;;;;;;5.97;5.43;;;;;;;10.47;59.94;97425.91;4962572;28;20236;-82
2021/12/17 10:41:00;;;;;;;5.97;5.37;;;;;;;10.77;59.44;97419.91;4961858;28;20224;-83
2021/12/17 10:43:34;;;;;;;5.93;5.37;;;;;;;10.78;58.82;97417.16;4975522;28;20211;-83
2021/12/17 10:46:05;;;;;;;5.87;5.27;;;;;;;10.97;58.73;97421.53;4975530;28;20208;-83
2021/12/17 10:48:35;;;;;;;6.43;5.83;;;;;;;10.90;58.14;97428.19;4975683;28;20204;-82
2021/12/17 10:51:28;;;;;;;6.70;5.90;;;;;;;10.82;58.09;97428.03;4963013;28;20267;-82
2021/12/17 10:53:57;;;;;;;6.90;6.03;;;;;;;10.68;58.31;97440.34;4956352;28;20570;-83
2021/12/17 10:56:27;;;;;;;6.73;6.10;;;;;;;10.78;58.62;97430.03;4955902;28;20216;-82
2021/12/17 10:58:56;;;;;;;6.70;6.00;;;;;;;10.62;57.96;97433.13;4956460;28;20205;-83
2021/12/17 11:01:33;;;;;;;7.00;6.30;;;;;;;10.61;59.19;97438.41;4955449;28;20216;-82
2021/12/17 11:04:05;;;;;;;7.83;5.97;;;;;;;10.89;58.64;97439.44;4955335;28;20212;-83
2021/12/17 11:06:42;;;;;;;7.03;6.00;;;;;;;11.03;58.69;97444.22;4954900;28;20220;-82
2021/12/17 11:09:08;;;;;;;7.23;5.90;;;;;;;11.22;58.83;97435.69;4954211;29;20783;-82
2021/12/17 11:11:41;;;;;;;6.07;5.57;;;;;;;11.38;59.09;97436.75;4953349;28;20232;-82
2021/12/17 11:14:08;;;;;;;5.83;5.33;;;;;;;11.53;58.59;97434.63;4955028;28;20792;-83
2021/12/17 11:16:37;;;;;;;6.17;5.57;;;;;;;11.63;58.09;97429.44;4954461;28;20201;-82
2021/12/17 11:19:04;;;;;;;6.90;5.20;;;;;;;11.66;57.32;97429.16;4955183;28;20212;-83
2021/12/17 11:21:33;;;;;;;6.37;5.77;;;;;;;11.71;57.11;97427.00;4953467;28;20240;-83
2021/12/17 11:24:00;;;;;;;6.50;5.60;;;;;;;11.74;57.21;97424.09;4961010;28;20231;-83
2021/12/17 11:26:28;;;;;;;5.60;5.10;;;;;;;11.85;56.89;97428.34;4954424;28;20200;-82
2021/12/17 11:29:00;;;;;;;6.37;5.77;;;;;;;11.85;56.49;97420.59;4953428;29;20204;-83
2021/12/17 11:31:28;;;;;;;5.83;5.33;;;;;;;11.87;56.53;97421.28;4953336;28;20236;-83
2021/12/17 11:33:57;;;;;;;7.00;5.40;;;;;;;11.96;58.66;97402.34;4953439;28;20300;-82
2021/12/17 11:36:23;;;;;;;7.40;5.13;;;;;;;12.04;58.69;97400.72;4953498;28;20205;-82
2021/12/17 11:38:59;;;;;;;7.07;4.67;;;;;;;12.13;57.71;97400.81;4953018;29;20200;-83
2021/12/17 11:41:40;;;;;;;5.70;5.20;;;;;;;12.18;57.17;97391.69;4954396;28;20239;-82
2021/12/17 11:44:09;;;;;;;5.73;5.13;;;;;;;12.10;56.59;97391.59;4953386;28;20216;-82
2021/12/17 11:46:35;;;;;;;7.73;5.47;;;;;;;12.14;57.35;97395.50;4954321;29;20292;-82
2021/12/17 11:49:04;;;;;;;6.03;5.43;;;;;;;12.03;57.41;97399.09;4953065;28;20212;-82
2021/12/17 11:51:33;;;;;;;5.80;5.30;;;;;;;12.14;58.00;97399.84;4951304;28;20323;-81
2021/12/17 11:54:04;;;;;;;6.03;5.53;;;;;;;12.16;57.26;97400.53;4953051;28;20677;-82
2021/12/17 11:56:38;;;;;;;5.97;5.37;;;;;;;12.19;57.38;97408.00;4953330;28;20208;-82
2021/12/17 11:59:05;;;;;;;7.87;5.40;;;;;;;12.18;57.61;97402.03;4953560;28;20204;-82
2021/12/17 12:01:57;;;;;;;5.87;5.37;;;;;;;12.10;57.05;97399.34;4960302;28;20287;-82
2021/12/17 12:04:48;;;;;;;6.30;5.50;;;;;;;11.99;57.52;97405.47;4974347;28;20663;-82
2021/12/17 12:07:16;;;;;;;5.93;5.37;;;;;;;11.83;58.07;97402.69;4935970;29;20247;-81
2021/12/17 12:10:01;;;;;;;6.57;5.83;;;;;;;11.94;58.63;97399.91;4939830;29;20228;-82
2021/12/17 12:12:30;;;;;;;5.77;5.10;;;;;;;12.00;58.42;97393.38;4954362;28;20601;-82
2021/12/17 12:15:34;;;;;;;5.80;5.20;;;;;;;11.97;57.39;97391.09;4955073;28;20212;-82
2021/12/17 12:18:21;;;;;;;6.20;5.63;;;;;;;12.02;57.54;97386.31;4954413;28;20622;-82
2021/12/17 12:20:52;;;;;;;5.77;5.27;;;;;;;12.00;57.92;97386.47;4953735;28;20708;-82
2021/12/17 12:23:20;;;;;;;6.53;5.63;;;;;;;11.91;57.74;97389.09;4954075;28;20207;-82
2021/12/17 12:25:48;;;;;;;6.27;5.67;;;;;;;11.89;57.88;97393.56;4957807;28;20213;-82
2021/12/17 12:28:15;;;;;;;5.93;5.40;;;;;;;11.83;58.09;97394.94;4962031;28;20201;-82
2021/12/17 12:30:45;;;;;;;5.97;5.47;;;;;;;11.70;58.42;97404.72;4973513;28;20275;-82
2021/12/17 12:33:15;;;;;;;6.60;5.90;;;;;;;11.56;58.79;97405.94;4959435;28;20236;-82
2021/12/17 12:35:56;;;;;;;6.07;5.47;;;;;;;11.42;58.62;97406.38;4958096;28;20232;-82
2021/12/17 12:38:29;;;;;;;5.80;5.30;;;;;;;11.24;59.60;97411.38;4958049;29;20607;-82
2021/12/17 12:40:57;;;;;;;5.97;5.37;;;;;;;10.99;59.74;97415.31;4957201;28;20252;-82
2021/12/17 12:43:28;;;;;;;6.87;5.80;;;;;;;10.76;60.56;97413.94;4958099;28;20909;-82
2021/12/17 12:45:55;;;;;;;5.83;5.33;;;;;;;10.51;61.35;97409.25;4958253;28;20204;-82
2021/12/17 12:48:29;;;;;;;6.43;5.57;;;;;;;10.33;61.61;97415.00;4957130;29;20252;-82
2021/12/17 12:51:16;;;;;;;5.93;5.43;;;;;;;10.22;62.01;97416.84;4957997;28;20232;-82
2021/12/17 12:53:46;;;;;;;6.40;5.80;;;;;;;10.11;62.56;97422.06;4957984;28;20232;-81
2021/12/17 12:56:17;;;;;;;6.30;5.80;;;;;;;9.83;62.80;97420.94;4957727;28;20255;-82
2021/12/17 12:58:49;;;;;;;6.73;6.07;;;;;;;9.70;63.67;97421.97;4956403;28;20209;-81
2021/12/17 13:01:19;;;;;;;10.30;6.97;;;;;;;9.67;64.57;97417.06;4955754;28;20900;-82
2021/12/17 13:03:46;;;;;;;7.97;7.03;;;;;;;9.55;65.39;97420.66;4957422;29;20204;-81
2021/12/17 13:06:17;;;;;;;6.97;6.27;;;;;;;9.49;65.24;97418.56;4956780;28;20209;-82
2021/12/17 13:08:52;;;;;;;6.40;5.90;;;;;;;9.46;65.36;97415.44;4956804;28;20212;-82
2021/12/17 13:11:19;;;;;;;6.70;6.07;;;;;;;9.33;65.70;97413.84;4955937;28;20239;-81
2021/12/17 13:13:51;;;;;;;6.87;6.27;;;;;;;9.27;66.13;97413.53;4961974;28;20628;-81
2021/12/17 13:16:22;;;;;;;8.20;6.50;;;;;;;9.16;66.59;97409.25;4964967;28;20205;-81
2021/12/17 13:21:47;;;;;;;7.30;6.70;;;;;;;8.83;67.33;97407.63;4957675;28;20275;-81
2021/12/17 13:24:16;;;;;;;7.10;6.40;;;;;;;8.76;67.43;97418.47;4960750;28;20231;-81
2021/12/17 13:26:45;;;;;;;7.37;6.63;;;;;;;8.47;68.39;97418.97;4960050;28;20204;-81
2021/12/17 13:29:14;;;;;;;8.03;7.30;;;;;;;8.15;70.01;97425.72;4957778;29;20208;-82
2021/12/17 13:31:45;;;;;;;8.20;7.20;;;;;;;8.15;69.80;97428.28;4957328;28;20756;-81
2021/12/17 13:34:15;;;;;;;7.60;6.90;;;;;;;8.33;69.46;97424.34;4958868;28;20201;-81
2021/12/17 13:37:01;;;;;;;10.27;9.20;;;;;;;8.39;69.07;97430.78;4957787;28;20196;-80
2021/12/17 13:39:30;;;;;;;8.90;8.00;;;;;;;8.21;69.85;97425.28;4957755;29;20235;-81
2021/12/17 13:41:57;;;;;;;8.10;7.40;;;;;;;8.31;69.54;97421.06;4956993;28;20239;-82
2021/12/17 13:44:39;;;;;;;8.47;7.67;;;;;;;8.29;70.38;97425.47;4957599;28;20220;-81
2021/12/17 13:47:15;;;;;;;8.03;7.33;;;;;;;8.11;70.79;97422.56;4958491;28;20207;-81